Flugplatz Korbach

Für EDGK sind keine METAR/TAF Berichte vorhanden.
Es werden die Flugwettermeldungen vom Flugplatz Fritzlar Airport in 32 km Entfernung angezeigt.

Bericht für ETHF

vom 07.08. um 17:20 UTC

Wind 5 kt aus 40°

Sichtweite 10 km oder mehr

gering bewölkt in 33000 ft

Temperatur 32.0°C

Taupunkt 10.0°C

Luftfeuchtigkeit 26%

Luftdruck 1019 hPa

ETHF 071720Z 04005KT 9999 FEW330 32/10 Q1019 BLU+
Keine Prognose (TAF) verfügbar.
Impressum